createdAt,value
2022-12-13T00:05:02.262Z,1.00
2022-12-13T00:10:34.095Z,1.00
2022-12-13T00:16:05.759Z,1.00
2022-12-13T00:21:36.868Z,1.00
2022-12-13T00:27:08.204Z,1.00
2022-12-13T00:32:39.457Z,1.00
2022-12-13T00:38:11.015Z,1.00
2022-12-13T00:43:42.994Z,1.00
2022-12-13T00:49:14.373Z,1.00
2022-12-13T00:54:45.787Z,1.00
2022-12-13T01:00:17.233Z,1.00
2022-12-13T01:11:18.879Z,1.00
2022-12-13T01:16:50.955Z,0.00
2022-12-13T01:22:22.697Z,1.00
2022-12-13T01:27:54.420Z,0.00
2022-12-13T01:33:26.066Z,0.00
2022-12-13T01:38:59.089Z,1.00
2022-12-13T01:44:30.127Z,1.00
2022-12-13T01:50:02.122Z,1.00
2022-12-13T01:55:33.823Z,1.00
2022-12-13T02:01:05.608Z,0.00
2022-12-13T02:06:37.549Z,0.00
2022-12-13T02:12:09.833Z,1.00
2022-12-13T02:17:45.302Z,1.00
2022-12-13T02:28:43.915Z,1.00
2022-12-13T02:34:16.219Z,1.00
2022-12-13T02:39:48.170Z,1.00
2022-12-13T02:45:21.095Z,1.00
2022-12-13T02:50:57.726Z,1.00
2022-12-13T02:56:29.644Z,1.00
2022-12-13T03:02:10.184Z,1.00
2022-12-13T03:07:33.291Z,1.00
2022-12-13T03:13:05.175Z,0.00
2022-12-13T03:18:36.818Z,1.00
2022-12-13T03:24:08.463Z,0.00
2022-12-13T03:29:40.179Z,0.00
2022-12-13T03:35:22.289Z,1.00
2022-12-13T03:40:43.936Z,1.00
2022-12-13T03:46:15.665Z,1.00
2022-12-13T03:51:47.309Z,1.00
2022-12-13T03:57:19.296Z,0.00
2022-12-13T04:02:57.001Z,0.00
2022-12-13T04:14:00.307Z,1.00
2022-12-13T04:19:32.099Z,0.00
2022-12-13T04:25:03.983Z,1.00
2022-12-13T04:30:35.728Z,1.00
2022-12-13T04:36:07.447Z,0.00
2022-12-13T04:41:39.332Z,0.00
2022-12-13T04:47:11.140Z,0.00
2022-12-13T04:52:42.818Z,1.00
2022-12-13T04:58:18.393Z,1.00
2022-12-13T05:03:46.428Z,1.00
2022-12-13T05:09:18.258Z,1.00
2022-12-13T05:20:19.798Z,1.00
2022-12-13T05:25:52.062Z,1.00
2022-12-13T05:31:24.505Z,0.00
2022-12-13T05:36:56.587Z,1.00
2022-12-13T05:42:28.407Z,1.00
2022-12-13T05:48:00.580Z,1.00
2022-12-13T05:53:32.545Z,1.00
2022-12-13T05:59:04.651Z,1.00
2022-12-13T06:04:36.352Z,1.00
2022-12-13T06:10:10.069Z,4.00
2022-12-13T06:15:44.649Z,11.00
2022-12-13T06:21:12.201Z,24.00
2022-12-13T06:26:45.124Z,62.00
2022-12-13T06:32:16.494Z,164.00
2022-12-13T06:37:48.441Z,345.00
2022-12-13T06:43:19.930Z,608.00
2022-12-13T06:48:51.766Z,954.00
2022-12-13T06:54:23.657Z,1337.00
2022-12-13T06:59:55.684Z,1848.00
2022-12-13T07:05:27.555Z,1991.00
2022-12-13T07:10:59.743Z,2479.00
2022-12-13T07:16:32.089Z,2825.00
2022-12-13T07:22:04.071Z,3757.00
2022-12-13T07:27:36.333Z,4231.00
2022-12-13T07:33:08.611Z,5126.00
2022-12-13T07:38:40.978Z,4862.00
2022-12-13T07:44:13.023Z,6745.00
2022-12-13T07:49:45.166Z,8897.00
2022-12-13T07:55:17.274Z,11724.00
2022-12-13T08:00:49.404Z,17237.00
2022-12-13T08:06:21.296Z,19254.00
2022-12-13T08:11:53.237Z,24242.00
2022-12-13T08:17:28.423Z,24408.00
2022-12-13T08:23:02.995Z,28519.00
2022-12-13T08:27:49.347Z,30801.00
2022-12-13T08:33:22.093Z,26432.00
2022-12-13T08:38:53.815Z,23903.00
2022-12-13T08:44:25.918Z,25176.00
2022-12-13T08:50:03.058Z,22993.00
2022-12-13T08:55:32.373Z,22602.00
2022-12-13T09:01:01.505Z,26736.00
2022-12-13T09:12:03.352Z,27088.00
2022-12-13T09:17:37.000Z,24266.00
2022-12-13T09:23:08.074Z,28558.00
2022-12-13T09:28:40.381Z,25770.00
2022-12-13T09:34:12.377Z,24167.00
2022-12-13T09:39:44.147Z,22611.00
2022-12-13T09:45:22.463Z,23882.00
2022-12-13T09:50:58.269Z,23634.00
2022-12-13T09:56:19.701Z,20987.00
2022-12-13T10:01:51.928Z,20959.00
2022-12-13T10:07:23.515Z,22301.00
2022-12-13T10:12:55.275Z,22260.00
2022-12-13T10:18:27.416Z,22267.00
2022-12-13T10:24:24.113Z,23210.00
2022-12-13T10:29:31.251Z,20582.00
2022-12-13T10:35:02.839Z,23324.00
2022-12-13T10:48:24.639Z,22348.00
2022-12-13T10:53:56.603Z,21684.00
2022-12-13T10:59:27.718Z,21552.00
2022-12-13T11:04:59.676Z,19874.00
2022-12-13T11:10:31.330Z,20256.00
2022-12-13T11:16:03.185Z,20561.00
2022-12-13T11:21:35.031Z,21151.00
2022-12-13T11:27:06.803Z,22178.00
2022-12-13T11:32:38.169Z,21295.00
2022-12-13T11:38:10.071Z,20233.00
2022-12-13T11:46:03.109Z,21765.00
2022-12-13T11:51:34.692Z,21744.00
2022-12-13T11:57:06.345Z,22054.00
2022-12-13T12:02:38.393Z,21442.00
2022-12-13T12:19:11.780Z,24302.00
2022-12-13T12:24:43.102Z,24816.00
2022-12-13T12:30:23.713Z,24763.00
2022-12-13T12:35:46.807Z,22792.00
2022-12-13T12:41:18.159Z,22128.00
2022-12-13T12:47:18.956Z,20516.00
2022-12-13T12:52:22.085Z,20557.00
2022-12-13T12:57:53.929Z,20311.00
2022-12-13T13:03:26.258Z,20537.00
2022-12-13T13:14:27.051Z,19575.00
2022-12-13T13:20:09.592Z,18295.00
2022-12-13T13:25:31.016Z,17110.00
2022-12-13T13:36:32.352Z,17894.00
2022-12-13T13:42:04.342Z,17683.00
2022-12-13T13:47:36.073Z,16775.00
2022-12-13T13:53:07.743Z,15387.00
2022-12-13T13:58:39.284Z,14256.00
2022-12-13T14:04:11.129Z,13936.00
2022-12-13T14:09:43.032Z,13427.00
2022-12-13T14:15:14.704Z,11920.00
2022-12-13T14:20:48.006Z,10833.00
2022-12-13T14:26:19.652Z,9959.00
2022-12-13T14:31:51.451Z,8398.00
2022-12-13T14:37:23.189Z,7176.00
2022-12-13T14:42:54.749Z,5874.00
2022-12-13T14:48:28.593Z,4444.00
2022-12-13T14:53:58.007Z,3430.00
2022-12-13T14:59:29.893Z,2785.00
2022-12-13T15:05:01.603Z,2008.00
2022-12-13T15:10:33.406Z,1312.00
2022-12-13T15:16:10.347Z,900.00
2022-12-13T15:21:37.102Z,615.00
2022-12-13T15:27:09.583Z,402.00
2022-12-13T15:32:41.341Z,242.00
2022-12-13T15:38:13.149Z,128.00
2022-12-13T15:43:45.239Z,48.00
2022-12-13T15:54:46.620Z,5.00
2022-12-13T16:00:18.604Z,3.00
2022-12-13T16:05:50.712Z,2.00
2022-12-13T16:11:22.393Z,1.00
2022-12-13T16:16:55.309Z,1.00
2022-12-13T16:22:28.158Z,1.00
2022-12-13T16:28:00.254Z,1.00
2022-12-13T16:33:32.791Z,1.00
2022-12-13T16:39:03.806Z,1.00
2022-12-13T16:44:36.030Z,1.00
2022-12-13T16:50:07.429Z,1.00
2022-12-13T16:55:39.597Z,2.00
2022-12-13T17:01:11.345Z,1.00
2022-12-13T17:06:43.185Z,1.00
2022-12-13T17:12:15.221Z,1.00
2022-12-13T17:17:47.278Z,1.00
2022-12-13T17:23:19.179Z,1.00
2022-12-13T17:28:51.249Z,2.00
2022-12-13T17:34:23.070Z,1.00
2022-12-13T17:39:54.846Z,1.00
2022-12-13T17:45:26.433Z,1.00
2022-12-13T17:50:58.519Z,1.00
2022-12-13T17:56:30.330Z,1.00
2022-12-13T18:02:02.175Z,1.00
2022-12-13T18:07:33.910Z,13.00
2022-12-13T18:13:05.483Z,14.00
2022-12-13T18:18:37.597Z,13.00
2022-12-13T18:24:10.083Z,13.00
2022-12-13T18:29:48.003Z,3.00
2022-12-13T18:35:19.938Z,2.00
2022-12-13T18:40:52.115Z,2.00
2022-12-13T18:46:23.913Z,3.00
2022-12-13T18:51:55.821Z,2.00
2022-12-13T18:57:27.280Z,2.00
2022-12-13T19:02:59.337Z,2.00
2022-12-13T19:08:31.207Z,2.00
2022-12-13T19:14:03.368Z,2.00
2022-12-13T19:19:35.660Z,2.00
2022-12-13T19:25:07.394Z,2.00
2022-12-13T19:30:39.275Z,2.00
2022-12-13T19:36:10.696Z,2.00
2022-12-13T19:41:42.402Z,2.00
2022-12-13T19:47:13.691Z,2.00
2022-12-13T19:52:45.475Z,2.00
2022-12-13T19:58:17.397Z,3.00
2022-12-13T20:03:49.292Z,3.00
2022-12-13T20:09:21.296Z,2.00
2022-12-13T20:14:53.040Z,2.00
2022-12-13T20:20:31.488Z,2.00
2022-12-13T20:25:56.561Z,3.00
2022-12-13T20:31:28.522Z,3.00
2022-12-13T20:39:21.532Z,2.00
2022-12-13T20:44:53.378Z,2.00
2022-12-13T20:50:25.475Z,2.00
2022-12-13T20:55:56.791Z,2.00
2022-12-13T21:01:28.608Z,2.00
2022-12-13T21:07:00.495Z,2.00
2022-12-13T21:12:31.934Z,2.00
2022-12-13T21:18:03.774Z,2.00
2022-12-13T21:23:35.800Z,2.00
2022-12-13T21:29:07.238Z,2.00
2022-12-13T21:34:39.210Z,2.00
2022-12-13T21:40:11.395Z,2.00
2022-12-13T21:45:43.541Z,2.00
2022-12-13T21:51:15.245Z,2.00
2022-12-13T21:56:46.866Z,2.00
2022-12-13T22:02:19.827Z,2.00
2022-12-13T22:07:51.520Z,2.00
2022-12-13T22:13:23.195Z,2.00
2022-12-13T22:18:55.169Z,2.00
2022-12-13T22:24:26.663Z,2.00
2022-12-13T22:29:58.630Z,1.00
2022-12-13T22:46:29.297Z,0.00
2022-12-13T22:52:00.960Z,1.00
2022-12-13T22:57:33.172Z,1.00
2022-12-13T23:03:05.309Z,1.00
2022-12-13T23:14:06.274Z,1.00
2022-12-13T23:19:50.902Z,1.00
2022-12-13T23:25:10.222Z,0.00
2022-12-13T23:30:42.291Z,1.00
2022-12-13T23:36:14.399Z,1.00
2022-12-13T23:41:45.931Z,1.00
2022-12-13T23:52:47.297Z,1.00
2022-12-13T23:58:18.951Z,1.00
